NCAR-RAP Real-Time Weather Data

Output produced by METARs form (08 May 2021  02:27 UTC)
found at http://weather.rap.ucar.edu/surface/
 
KRFD 080154Z 01007KT 10SM FEW070 09/M04 A3008 RMK AO2 SLP189 T00891039
KRFD 080054Z 36008KT 10SM FEW070 11/M04 A3006 RMK AO2 SLP182 T01061044
KRFD 072354Z 01010KT 10SM FEW070 12/M03 A3006 RMK AO2 SLP180 T01221033 10150 20117 51003
KRFD 072254Z 36013G19KT 10SM SCT070 13/M03 A3006 RMK AO2 SLP180 T01281028
KRFD 072154Z 35013G21KT 10SM BKN075 13/M03 A3005 RMK AO2 SLP177 T01331028
KRFD 072054Z 36013G17KT 10SM OVC075 14/M01 A3005 RMK AO2 PK WND 02026/2027 SLP177 T01441006 53007
KRFD 071954Z 31011G22KT 10SM BKN070 14/M02 A3004 RMK AO2 SLP174 T01391022
KRFD 071854Z 36014G21KT 10SM BKN065 14/M02 A3003 RMK AO2 PK WND 34026/1827 SLP172 T01441017
KRFD 071754Z 32015G24KT 10SM BKN065 15/M01 A3003 RMK AO2 PK WND 35026/1734 SLP170 T01501011 10150 20094 53001
KRFD 071654Z 31016G25KT 10SM SCT060 14/M02 A3003 RMK AO2 SLP169 T01441017
KRFD 071554Z 33014G24KT 10SM FEW050 14/00 A3002 RMK AO2 SLP167 T01390000
KRFD 071454Z 35012G17KT 10SM SCT060 13/03 A3002 RMK AO2 SLP168 T01280033 51004
KRFD 071354Z 33011KT 10SM SCT070 SCT095 11/03 A3002 RMK AO2 SLP168 T01110028
KRFD 071254Z 31008KT 10SM BKN070 BKN095 11/02 A3002 RMK AO2 SLP167 T01060022
KRFD 071154Z 30006KT 10SM BKN070 BKN090 10/02 A3001 RMK AO2 SLP164 60000 70004 T01000017 10106 20056 51001